createdAt,value
2022-10-06T00:02:41.249Z,102094.38
2022-10-06T00:05:26.393Z,102099.09
2022-10-06T00:08:11.590Z,102106.34
2022-10-06T00:10:57.243Z,102095.53
2022-10-06T00:13:42.991Z,102111.25
2022-10-06T00:16:28.886Z,102121.75
2022-10-06T00:19:13.830Z,102123.56
2022-10-06T00:21:59.163Z,102118.38
2022-10-06T00:24:44.087Z,102133.44
2022-10-06T00:27:40.945Z,102136.03
2022-10-06T00:30:27.787Z,102151.00
2022-10-06T00:33:15.885Z,102152.72
2022-10-06T00:36:01.270Z,102154.53
2022-10-06T00:38:46.464Z,102151.44
2022-10-06T00:41:31.733Z,102164.44
2022-10-06T00:44:16.719Z,102154.31
2022-10-06T00:47:02.958Z,102170.69
2022-10-06T00:49:48.929Z,102174.22
2022-10-06T00:52:34.595Z,102168.22
2022-10-06T00:55:20.286Z,102179.63
2022-10-06T00:58:06.769Z,102173.09
2022-10-06T01:00:55.891Z,102184.28
2022-10-06T01:03:50.221Z,102191.38
2022-10-06T01:06:45.249Z,102198.50
2022-10-06T01:09:31.403Z,102191.81
2022-10-06T01:12:17.033Z,102201.28
2022-10-06T01:15:02.333Z,102205.78
2022-10-06T01:17:57.369Z,102213.81
2022-10-06T01:20:50.077Z,102215.78
2022-10-06T01:23:36.046Z,102218.56
2022-10-06T01:26:24.043Z,102216.06
2022-10-06T01:29:09.938Z,102216.06
2022-10-06T01:31:55.433Z,102214.63
2022-10-06T01:34:40.479Z,102224.31
2022-10-06T01:37:25.688Z,102232.25
2022-10-06T01:40:10.848Z,102247.22
2022-10-06T01:42:56.803Z,102247.97
2022-10-06T01:45:42.019Z,102243.91
2022-10-06T01:48:28.082Z,102250.38
2022-10-06T01:51:18.483Z,102246.44
2022-10-06T01:54:03.637Z,102243.34
2022-10-06T01:56:48.881Z,102242.66
2022-10-06T01:59:34.493Z,102252.50
2022-10-06T02:02:19.712Z,102266.44
2022-10-06T02:05:05.785Z,102250.41
2022-10-06T02:07:50.795Z,102269.69
2022-10-06T02:10:36.240Z,102271.59
2022-10-06T02:13:24.858Z,102273.41
2022-10-06T02:16:11.831Z,102275.25
2022-10-06T02:18:57.059Z,102265.13
2022-10-06T02:21:42.243Z,102265.13
2022-10-06T02:24:28.149Z,102262.66
2022-10-06T02:27:13.359Z,102268.03
2022-10-06T02:29:58.383Z,102276.19
2022-10-06T02:32:44.094Z,102270.19
2022-10-06T02:35:29.255Z,102285.97
2022-10-06T02:38:14.317Z,102271.19
2022-10-06T02:41:01.546Z,102273.00
2022-10-06T02:43:46.695Z,102278.44
2022-10-06T02:46:32.468Z,102283.34
2022-10-06T02:49:17.323Z,102291.25
2022-10-06T02:52:02.341Z,102290.53
2022-10-06T02:54:47.639Z,102283.53
2022-10-06T02:57:32.631Z,102289.66
2022-10-06T03:00:18.030Z,102301.97
2022-10-06T03:03:03.374Z,102305.63
2022-10-06T03:05:48.678Z,102304.97
2022-10-06T03:08:33.786Z,102302.53
2022-10-06T03:11:21.242Z,102310.34
2022-10-06T03:14:07.099Z,102318.31
2022-10-06T03:16:52.182Z,102316.56
2022-10-06T03:19:38.445Z,102325.97
2022-10-06T03:22:23.597Z,102317.34
2022-10-06T03:25:09.659Z,102329.47
2022-10-06T03:27:54.925Z,102333.03
2022-10-06T03:30:39.778Z,102336.63
2022-10-06T03:33:25.103Z,102338.47
2022-10-06T03:36:12.861Z,102332.78
2022-10-06T03:38:58.190Z,102343.06
2022-10-06T03:41:43.574Z,102348.16
2022-10-06T03:44:28.523Z,102362.06
2022-10-06T03:47:17.226Z,102357.78
2022-10-06T03:50:03.364Z,102367.22
2022-10-06T03:52:51.303Z,102373.50
2022-10-06T03:55:36.449Z,102379.06
2022-10-06T03:58:21.481Z,102383.44
2022-10-06T04:01:14.905Z,102371.63
2022-10-06T04:04:00.917Z,102388.88
2022-10-06T04:06:46.112Z,102389.81
2022-10-06T04:09:31.158Z,102395.13
2022-10-06T04:12:16.369Z,102385.19
2022-10-06T04:15:02.313Z,102395.56
2022-10-06T04:17:47.456Z,102405.03
2022-10-06T04:20:32.618Z,102421.59
2022-10-06T04:23:19.698Z,102419.09
2022-10-06T04:26:16.605Z,102413.16
2022-10-06T04:29:01.811Z,102416.69
2022-10-06T04:31:47.155Z,102423.91
2022-10-06T04:34:32.521Z,102429.06
2022-10-06T04:37:17.508Z,102435.84
2022-10-06T04:40:02.975Z,102436.91
2022-10-06T04:42:49.263Z,102438.31
2022-10-06T04:45:34.524Z,102446.38
2022-10-06T04:48:19.613Z,102445.66
2022-10-06T04:51:07.035Z,102448.13
2022-10-06T04:53:52.349Z,102437.78
2022-10-06T04:56:37.700Z,102451.81
2022-10-06T04:59:42.791Z,102451.16
2022-10-06T05:02:31.321Z,102457.34
2022-10-06T05:05:16.622Z,102455.16
2022-10-06T05:08:02.095Z,102457.81
2022-10-06T05:10:47.282Z,102466.59
2022-10-06T05:13:32.843Z,102467.34
2022-10-06T05:16:18.475Z,102467.34
2022-10-06T05:19:03.350Z,102472.75
2022-10-06T05:21:48.351Z,102471.41
2022-10-06T05:24:33.377Z,102481.75
2022-10-06T05:27:18.284Z,102480.97
2022-10-06T05:30:03.583Z,102477.69
2022-10-06T05:32:50.426Z,102483.00
2022-10-06T05:35:35.645Z,102489.88
2022-10-06T05:38:21.681Z,102482.28
2022-10-06T05:41:15.882Z,102496.94
2022-10-06T05:44:00.887Z,102491.13
2022-10-06T05:46:46.069Z,102504.13
2022-10-06T05:49:31.306Z,102496.50
2022-10-06T05:52:16.262Z,102518.47
2022-10-06T05:55:01.636Z,102514.25
2022-10-06T05:57:46.547Z,102521.34
2022-10-06T06:00:31.652Z,102519.69
2022-10-06T06:03:16.942Z,102522.47
2022-10-06T06:06:01.997Z,102528.63
2022-10-06T06:08:51.407Z,102532.91
2022-10-06T06:11:47.783Z,102531.22
2022-10-06T06:14:51.739Z,102533.75
2022-10-06T06:17:36.859Z,102524.34
2022-10-06T06:20:21.977Z,102539.88
2022-10-06T06:23:06.964Z,102531.28
2022-10-06T06:26:02.456Z,102544.25
2022-10-06T06:28:48.617Z,102541.66
2022-10-06T06:31:36.633Z,102529.72
2022-10-06T06:34:22.191Z,102546.06
2022-10-06T06:37:14.146Z,102552.91
2022-10-06T06:40:00.461Z,102565.84
2022-10-06T06:42:46.653Z,102570.13
2022-10-06T06:45:34.533Z,102566.72
2022-10-06T06:48:19.671Z,102559.78
2022-10-06T06:51:05.276Z,102578.59
2022-10-06T06:53:51.647Z,102572.19
2022-10-06T06:56:38.587Z,102583.44
2022-10-06T06:59:25.182Z,102585.22
2022-10-06T07:02:11.874Z,102590.53
2022-10-06T07:04:56.894Z,102598.28
2022-10-06T07:07:42.201Z,102588.59
2022-10-06T07:10:27.736Z,102593.72
2022-10-06T07:13:17.313Z,102586.63
2022-10-06T07:16:21.079Z,102606.19
2022-10-06T07:19:25.449Z,102594.72
2022-10-06T07:22:29.444Z,102613.38
2022-10-06T07:25:26.224Z,102616.44
2022-10-06T07:28:12.244Z,102616.91
2022-10-06T07:31:00.616Z,102627.88
2022-10-06T07:33:45.882Z,102609.50
2022-10-06T07:36:32.372Z,102634.19
2022-10-06T07:39:17.234Z,102640.09
2022-10-06T07:42:02.186Z,102631.16
2022-10-06T07:45:07.754Z,102629.09
2022-10-06T07:47:58.905Z,102630.59
2022-10-06T07:50:45.910Z,102640.72
2022-10-06T07:53:31.197Z,102642.22
2022-10-06T07:56:17.377Z,102643.59
2022-10-06T07:59:02.883Z,102639.78
2022-10-06T08:01:50.030Z,102647.06
2022-10-06T08:04:35.273Z,102640.56
2022-10-06T08:07:20.168Z,102646.25
2022-10-06T08:10:05.476Z,102637.97
2022-10-06T08:12:50.713Z,102640.06
2022-10-06T08:15:36.187Z,102650.09
2022-10-06T08:18:44.607Z,102650.41
2022-10-06T08:21:30.643Z,102639.53
2022-10-06T08:24:17.197Z,102632.25
2022-10-06T08:27:02.385Z,102636.16
2022-10-06T08:29:47.397Z,102640.97
2022-10-06T08:32:33.214Z,102636.25
2022-10-06T08:35:18.073Z,102637.63
2022-10-06T08:38:03.166Z,102647.69
2022-10-06T08:40:48.323Z,102648.91
2022-10-06T08:43:34.775Z,102637.19
2022-10-06T08:46:24.968Z,102645.47
2022-10-06T08:49:18.384Z,102640.69
2022-10-06T08:52:20.071Z,102631.59
2022-10-06T08:55:32.802Z,102634.69
2022-10-06T08:58:50.358Z,102654.03
2022-10-06T09:01:45.170Z,102646.81
2022-10-06T09:04:33.280Z,102657.19
2022-10-06T09:07:52.372Z,102667.22
2022-10-06T09:10:56.265Z,102665.75
2022-10-06T09:13:53.258Z,102670.28
2022-10-06T09:16:43.660Z,102675.78
2022-10-06T09:19:33.854Z,102670.75
2022-10-06T09:22:22.600Z,102663.19
2022-10-06T09:25:17.523Z,102658.38
2022-10-06T09:28:03.926Z,102662.13
2022-10-06T09:30:53.172Z,102668.19
2022-10-06T09:33:40.399Z,102672.94
2022-10-06T09:36:26.107Z,102677.91
2022-10-06T09:39:24.689Z,102681.75
2022-10-06T09:42:09.590Z,102681.19
2022-10-06T09:45:25.772Z,102676.56
2022-10-06T09:48:13.317Z,102684.31
2022-10-06T09:51:07.396Z,102681.13
2022-10-06T09:54:15.701Z,102679.94
2022-10-06T09:57:10.108Z,102685.50
2022-10-06T09:59:58.156Z,102679.13
2022-10-06T10:02:44.028Z,102689.03
2022-10-06T10:05:33.034Z,102681.56
2022-10-06T10:08:25.755Z,102681.81
2022-10-06T10:11:41.045Z,102690.00
2022-10-06T10:14:26.435Z,102687.50
2022-10-06T10:17:19.078Z,102680.28
2022-10-06T10:20:22.309Z,102678.75
2022-10-06T10:23:30.161Z,102682.13
2022-10-06T10:26:55.113Z,102687.16
2022-10-06T10:29:46.027Z,102665.97
2022-10-06T10:32:51.224Z,102678.22
2022-10-06T10:35:45.748Z,102676.94
2022-10-06T10:38:32.051Z,102687.81
2022-10-06T10:41:26.257Z,102674.59
2022-10-06T10:44:23.366Z,102683.31
2022-10-06T10:47:14.896Z,102670.88
2022-10-06T10:50:23.262Z,102675.28
2022-10-06T10:53:20.945Z,102673.59
2022-10-06T10:56:09.237Z,102674.78
2022-10-06T10:58:59.320Z,102644.94
2022-10-06T11:01:49.988Z,102663.47
2022-10-06T11:04:40.945Z,102662.59
2022-10-06T11:07:48.318Z,102671.41
2022-10-06T11:10:50.740Z,102665.66
2022-10-06T11:13:48.872Z,102666.56
2022-10-06T11:16:37.332Z,102665.41
2022-10-06T11:19:28.773Z,102666.63
2022-10-06T11:22:41.695Z,102660.53
2022-10-06T11:25:46.627Z,102649.38
2022-10-06T11:28:52.599Z,102654.94
2022-10-06T11:31:54.588Z,102647.88
2022-10-06T11:34:41.516Z,102648.00
2022-10-06T11:37:34.630Z,102656.91
2022-10-06T11:40:29.766Z,102641.56
2022-10-06T11:43:23.076Z,102638.84
2022-10-06T11:46:20.495Z,102645.00
2022-10-06T11:49:30.332Z,102649.44
2022-10-06T11:52:15.218Z,102643.91
2022-10-06T11:55:14.673Z,102643.19
2022-10-06T11:58:37.494Z,102643.09
2022-10-06T12:01:35.037Z,102623.75
2022-10-06T12:04:24.545Z,102634.16
2022-10-06T12:07:10.815Z,102625.97
2022-10-06T12:10:27.756Z,102634.13
2022-10-06T12:14:04.170Z,102623.44
2022-10-06T12:19:58.870Z,102604.66
2022-10-06T12:22:50.678Z,102616.25
2022-10-06T12:26:01.822Z,102621.56
2022-10-06T12:29:25.022Z,102617.09
2022-10-06T12:32:21.440Z,102611.75
2022-10-06T12:35:20.559Z,102612.94
2022-10-06T12:38:26.853Z,102607.41
2022-10-06T12:41:12.970Z,102611.84
2022-10-06T12:43:58.091Z,102602.09
2022-10-06T12:46:46.475Z,102605.09
2022-10-06T12:49:42.710Z,102603.38
2022-10-06T12:52:46.537Z,102603.75
2022-10-06T12:55:49.014Z,102602.34
2022-10-06T12:58:34.497Z,102601.63
2022-10-06T13:01:22.248Z,102599.41
2022-10-06T13:04:34.496Z,102589.16
2022-10-06T13:07:24.279Z,102590.94
2022-10-06T13:10:15.485Z,102591.03
2022-10-06T13:13:01.069Z,102596.38
2022-10-06T13:15:46.264Z,102585.81
2022-10-06T13:18:32.760Z,102589.81
2022-10-06T13:21:18.103Z,102583.09
2022-10-06T13:24:03.637Z,102579.59
2022-10-06T13:26:49.082Z,102582.91
2022-10-06T13:29:34.279Z,102576.03
2022-10-06T13:32:19.335Z,102563.25
2022-10-06T13:35:04.667Z,102565.19
2022-10-06T13:37:51.893Z,102572.44
2022-10-06T13:40:44.423Z,102567.72
2022-10-06T13:43:34.088Z,102571.78
2022-10-06T13:46:25.502Z,102562.31
2022-10-06T13:49:13.675Z,102565.09
2022-10-06T13:52:10.084Z,102559.03
2022-10-06T13:55:00.699Z,102554.28
2022-10-06T13:57:48.622Z,102564.19
2022-10-06T14:00:46.196Z,102564.16
2022-10-06T14:06:27.746Z,102564.47
2022-10-06T14:09:15.506Z,102562.31
2022-10-06T14:12:03.986Z,102565.97
2022-10-06T14:14:53.010Z,102557.50
2022-10-06T14:17:38.306Z,102553.28
2022-10-06T14:20:36.814Z,102561.31
2022-10-06T14:24:00.294Z,102559.72
2022-10-06T14:26:49.634Z,102559.13
2022-10-06T14:29:36.204Z,102556.81
2022-10-06T14:32:21.177Z,102543.13
2022-10-06T14:35:10.676Z,102553.31
2022-10-06T14:37:55.673Z,102552.63
2022-10-06T14:40:41.658Z,102541.03
2022-10-06T14:43:26.894Z,102552.34
2022-10-06T14:46:12.017Z,102554.59
2022-10-06T14:48:57.932Z,102539.63
2022-10-06T14:51:45.347Z,102541.84
2022-10-06T14:54:30.279Z,102529.16
2022-10-06T14:57:15.660Z,102542.44
2022-10-06T15:00:01.127Z,102544.25
2022-10-06T15:02:46.463Z,102545.53
2022-10-06T15:05:31.728Z,102536.38
2022-10-06T15:08:18.239Z,102529.88
2022-10-06T15:11:03.279Z,102529.50
2022-10-06T15:13:48.946Z,102519.59
2022-10-06T15:16:37.317Z,102511.97
2022-10-06T15:19:22.503Z,102519.84
2022-10-06T15:22:09.925Z,102504.00
2022-10-06T15:24:54.717Z,102509.28
2022-10-06T15:27:58.214Z,102508.88
2022-10-06T15:30:43.430Z,102498.25
2022-10-06T15:33:30.462Z,102491.38
2022-10-06T15:36:18.814Z,102488.56
2022-10-06T15:39:11.254Z,102486.16
2022-10-06T15:41:57.255Z,102490.72
2022-10-06T15:44:42.115Z,102489.47
2022-10-06T15:47:27.944Z,102485.84
2022-10-06T15:50:17.856Z,102474.34
2022-10-06T15:53:03.651Z,102488.56
2022-10-06T15:55:49.021Z,102484.75
2022-10-06T15:58:34.329Z,102487.22
2022-10-06T16:01:34.437Z,102490.41
2022-10-06T16:04:28.927Z,102482.66
2022-10-06T16:07:16.495Z,102476.63
2022-10-06T16:10:01.509Z,102484.88
2022-10-06T16:12:46.752Z,102479.94
2022-10-06T16:15:31.820Z,102477.28
2022-10-06T16:18:17.052Z,102484.69
2022-10-06T16:21:02.305Z,102484.47
2022-10-06T16:23:47.256Z,102479.91
2022-10-06T16:26:33.022Z,102473.63
2022-10-06T16:29:20.464Z,102480.06
2022-10-06T16:32:05.759Z,102467.00
2022-10-06T16:34:51.394Z,102469.84
2022-10-06T16:37:36.402Z,102467.91
2022-10-06T16:40:23.046Z,102476.34
2022-10-06T16:43:08.382Z,102466.94
2022-10-06T16:46:02.481Z,102465.44
2022-10-06T16:48:50.301Z,102451.31
2022-10-06T16:51:41.087Z,102460.09
2022-10-06T16:54:26.541Z,102456.25
2022-10-06T16:57:11.882Z,102462.88
2022-10-06T16:59:56.857Z,102458.28
2022-10-06T17:02:42.169Z,102448.38
2022-10-06T17:05:29.016Z,102450.56
2022-10-06T17:08:13.989Z,102458.00
2022-10-06T17:11:25.178Z,102458.31
2022-10-06T17:14:10.757Z,102467.66
2022-10-06T17:16:56.765Z,102458.31
2022-10-06T17:19:42.151Z,102465.78
2022-10-06T17:22:27.196Z,102465.50
2022-10-06T17:25:14.019Z,102462.41
2022-10-06T17:27:59.396Z,102461.81
2022-10-06T17:30:51.622Z,102469.06
2022-10-06T17:33:39.930Z,102464.44
2022-10-06T17:36:25.796Z,102470.47
2022-10-06T17:39:12.053Z,102474.06
2022-10-06T17:41:57.807Z,102471.78
2022-10-06T17:44:42.593Z,102484.44
2022-10-06T17:47:27.869Z,102478.47
2022-10-06T17:50:12.819Z,102483.25
2022-10-06T17:52:59.288Z,102480.03
2022-10-06T17:55:46.518Z,102480.22
2022-10-06T17:58:31.378Z,102476.16
2022-10-06T18:01:19.283Z,102479.97
2022-10-06T18:04:06.326Z,102468.59
2022-10-06T18:06:52.956Z,102478.03
2022-10-06T18:09:38.051Z,102475.84
2022-10-06T18:12:23.138Z,102484.84
2022-10-06T18:15:09.977Z,102483.25
2022-10-06T18:17:55.493Z,102477.41
2022-10-06T18:20:41.530Z,102480.03
2022-10-06T18:23:26.529Z,102486.25
2022-10-06T18:26:14.334Z,102483.00
2022-10-06T18:28:59.458Z,102485.06
2022-10-06T18:31:45.378Z,102474.84
2022-10-06T18:37:35.711Z,102477.50
2022-10-06T18:40:21.083Z,102474.19
2022-10-06T18:43:06.122Z,102462.34
2022-10-06T18:46:09.980Z,102469.34
2022-10-06T18:48:55.227Z,102477.44
2022-10-06T18:51:43.310Z,102469.84
2022-10-06T18:54:31.170Z,102475.22
2022-10-06T18:57:16.530Z,102467.38
2022-10-06T19:00:01.629Z,102472.81
2022-10-06T19:02:49.305Z,102471.03
2022-10-06T19:05:35.109Z,102468.56
2022-10-06T19:08:20.078Z,102454.97
2022-10-06T19:11:25.779Z,102449.94
2022-10-06T19:14:13.311Z,102459.41
2022-10-06T19:17:04.242Z,102454.31
2022-10-06T19:19:51.233Z,102456.22
2022-10-06T19:22:36.858Z,102454.78
2022-10-06T19:25:21.807Z,102452.44
2022-10-06T19:28:07.067Z,102448.31
2022-10-06T19:31:04.115Z,102458.84
2022-10-06T19:33:50.254Z,102459.13
2022-10-06T19:36:35.445Z,102466.00
2022-10-06T19:39:30.770Z,102464.47
2022-10-06T19:42:37.700Z,102462.00
2022-10-06T19:45:22.988Z,102465.63
2022-10-06T19:48:10.474Z,102445.75
2022-10-06T19:50:55.711Z,102450.94
2022-10-06T19:53:41.743Z,102461.16
2022-10-06T19:56:29.986Z,102460.38
2022-10-06T19:59:17.872Z,102465.81
2022-10-06T20:02:03.334Z,102460.53
2022-10-06T20:04:48.314Z,102457.13
2022-10-06T20:07:33.524Z,102461.72
2022-10-06T20:10:18.577Z,102452.34
2022-10-06T20:13:03.974Z,102466.41
2022-10-06T20:15:49.016Z,102462.16
2022-10-06T20:18:36.321Z,102460.78
2022-10-06T20:21:24.738Z,102446.63
2022-10-06T20:24:18.085Z,102455.53
2022-10-06T20:27:03.583Z,102447.97
2022-10-06T20:29:48.956Z,102450.94
2022-10-06T20:32:34.126Z,102463.06
2022-10-06T20:35:19.073Z,102455.25
2022-10-06T20:38:05.961Z,102455.41
2022-10-06T20:40:50.811Z,102459.97
2022-10-06T20:43:35.921Z,102455.13
2022-10-06T20:46:21.449Z,102453.78
2022-10-06T20:49:17.311Z,102455.72
2022-10-06T20:52:04.451Z,102457.34
2022-10-06T20:54:49.337Z,102455.72
2022-10-06T20:57:34.664Z,102453.41
2022-10-06T21:00:19.875Z,102458.72
2022-10-06T21:03:04.919Z,102449.22
2022-10-06T21:05:50.632Z,102444.03
2022-10-06T21:08:35.798Z,102451.16
2022-10-06T21:11:22.903Z,102450.22
2022-10-06T21:14:11.140Z,102445.03
2022-10-06T21:16:56.864Z,102449.53
2022-10-06T21:19:42.140Z,102449.06
2022-10-06T21:22:31.068Z,102449.41
2022-10-06T21:25:16.368Z,102440.84
2022-10-06T21:28:02.826Z,102427.22
2022-10-06T21:30:48.417Z,102424.59
2022-10-06T21:33:37.136Z,102434.88
2022-10-06T21:36:24.645Z,102428.13
2022-10-06T21:39:11.012Z,102420.88
2022-10-06T21:41:56.265Z,102426.97
2022-10-06T21:44:41.149Z,102429.50
2022-10-06T21:47:26.164Z,102426.03
2022-10-06T21:50:11.231Z,102413.34
2022-10-06T21:52:56.368Z,102426.25
2022-10-06T21:55:41.587Z,102416.88
2022-10-06T21:58:26.556Z,102413.03
2022-10-06T22:01:11.861Z,102420.78
2022-10-06T22:03:59.994Z,102413.97
2022-10-06T22:06:45.724Z,102410.72
2022-10-06T22:09:30.927Z,102406.44
2022-10-06T22:12:16.111Z,102403.41
2022-10-06T22:15:00.988Z,102382.91
2022-10-06T22:17:46.884Z,102390.31
2022-10-06T22:20:34.244Z,102388.72
2022-10-06T22:23:19.492Z,102376.00
2022-10-06T22:26:04.716Z,102385.53
2022-10-06T22:28:52.450Z,102382.06
2022-10-06T22:31:39.738Z,102378.50
2022-10-06T22:34:25.100Z,102367.19
2022-10-06T22:37:10.281Z,102363.59
2022-10-06T22:39:55.264Z,102366.34
2022-10-06T22:42:40.270Z,102355.16
2022-10-06T22:45:25.459Z,102357.16
2022-10-06T22:48:10.450Z,102355.44
2022-10-06T22:50:55.555Z,102347.94
2022-10-06T22:53:40.823Z,102358.19
2022-10-06T22:56:31.554Z,102350.47
2022-10-06T22:59:16.634Z,102349.72
2022-10-06T23:04:57.335Z,102346.66
2022-10-06T23:07:42.960Z,102340.56
2022-10-06T23:10:30.283Z,102333.59
2022-10-06T23:13:15.664Z,102315.00
2022-10-06T23:16:07.199Z,102329.41
2022-10-06T23:18:52.707Z,102310.59
2022-10-06T23:21:39.882Z,102322.59
2022-10-06T23:24:25.196Z,102322.19
2022-10-06T23:27:10.485Z,102295.56
2022-10-06T23:29:55.632Z,102316.16
2022-10-06T23:32:40.910Z,102308.41
2022-10-06T23:35:25.990Z,102306.66
2022-10-06T23:38:10.932Z,102305.66
2022-10-06T23:40:56.180Z,102302.94
2022-10-06T23:43:41.618Z,102279.81
2022-10-06T23:46:26.610Z,102295.31
2022-10-06T23:49:12.168Z,102299.97
2022-10-06T23:51:57.137Z,102298.56
2022-10-06T23:54:42.897Z,102296.69
2022-10-06T23:57:27.880Z,102289.81
